Ivica Pjaca

Chefscout - HNK Rijeka
23 Apr 2028
Sonntag
Verarbeitung

Persönlichkeit

Anpassungsfähigkeit (13) Ehrgeiz (7) Kontroverse (12) Loyalität (6) Druck (13) Professionalität (16) Fairness (11) Temperament (6)

Profil

Trainerstil Demokratisch
Lizenz Kontinentale C
Entschlossenheit 8
Menschenführung 11
Motivation 11
Disziplin 5
Arbeitszufriedenheit
100%
Ermüdung
0%
Rolle Chefscout
Gehalt 84.2K p/W
Vertrag 14.03.2030

Leistung

Verhalten Gut
Trainingseffektivität
36%
Spielerentwicklung
55%
Verletzungsprävention
30%
Taktische Umsetzung
40%

Letzte Ereignisse

Nahm an einer Scouting-Besprechung teil jetzt
Nahm an einer Scouting-Besprechung teil jetzt
Empfahl ein Transferziel jetzt
Empfahl ein Transferziel jetzt
Empfahl ein Transferziel jetzt
Empfahl ein Transferziel jetzt
Spieler begutachtet jetzt
Spieler begutachtet jetzt

Aktuell beobachtet

210
Spieler Verein Status Fähigkeit Vertrauen Beobachtet Zuletzt beobachtet Letzte Stimme
Honest Ahanor Atalanta Aktiv 131 / 144 40% 4 22.04.2028 -
Miguel Figueiredo Benfica Aktiv 119 / 131 40% 1 22.04.2028 -
Ahmed Zaki Masr El Makasa Aktiv 75 / 93 40% 1 21.04.2028 -
Marko Zebić Lucko Aktiv 112 / 118 40% 1 21.04.2028 -
Jorthy Mokio ADO Den Haag Aktiv 138 / 142 40% 2 19.04.2028 -
Mattia Puzone Siracusa Aktiv 95 / 110 40% 1 19.04.2028 -
Finn Jeltsch VfB Stuttgart Aktiv 131 / 147 40% 2 18.04.2028 -
Tyler Fletcher Rotherham United Aktiv 110 / 113 40% 3 17.04.2028 -
Kwesi Sorotu Badori Berekum Chelsea Aktiv 98 / 94 40% 1 17.04.2028 -
Daniel Banjaqui Benfica Aktiv 131 / 126 40% 2 15.04.2028 -
Artem Nosachev Spartak Moscow Aktiv 89 / 80 40% 1 15.04.2028 -
Jorge Moreno Athletic Bilbao Aktiv 120 / 135 40% 2 14.04.2028 -
Nour Ashraf ENPPI Aktiv 86 / 95 40% 1 14.04.2028 -
Thulani Manyama SuperSport United Aktiv 100 / 115 40% 2 13.04.2028 -
Abubakar Adams Aduana Stars Aktiv 80 / 96 40% 2 12.04.2028 -
Tobiáš Pališčák Zlin Aktiv 102 / 108 40% 1 12.04.2028 -
Trey Nyoni Rotherham United Aktiv 147 / 142 40% 1 11.04.2028 -
Alani Maritimo Aktiv 108 / 121 40% 1 11.04.2028 -
Tobías Ramírez River Plate Aktiv 127 / 132 40% 1 10.04.2028 -
Kelian Le Pironnec Mirandés Aktiv 90 / 102 40% 1 09.04.2028 -
Giovanni Leoni Lincoln City Aktiv 144 / 150 40% 1 08.04.2028 -
Salvador Blopá Sporting CP Aktiv 120 / 131 40% 2 07.04.2028 -
Luka Vušković Tottenham Aktiv 138 / 157 40% 1 07.04.2028 -
Josh Acheampong Everton Aktiv 144 / 147 40% 2 06.04.2028 -
Martim Cunha Porto Aktiv 115 / 115 40% 2 05.04.2028 -
Andrey Ivlev Nizhniy Novgorod Aktiv 115 / 117 40% 1 04.04.2028 -
Olivier Leroux Mouscron Aktiv 101 / 109 40% 1 04.04.2028 -
Dmitry Pestryakov Krasnodar Aktiv 122 / 124 40% 1 08.03.2028 -
Germán Barbas Burgos Aktiv 109 / 115 40% 3 13.02.2028 -
Adnan Nainggolan KV Oostende Aktiv 102 / 108 40% 1 11.02.2028 -
Lucas Camejo River Plate Aktiv 96 / 92 40% 1 10.02.2028 -
Riquelme Thompson-Jones Accrington Stanley Aktiv 104 / 118 40% 1 10.02.2028 -
Bernardo Lima Porto Aktiv 113 / 115 40% 1 07.02.2028 -
Tomislav Adolf Tomić Dugopolje Aktiv 99 / 109 58% 1 24.01.2028 Befürworten
Matvey Bardachev Zenit Verhandlung 107 / 117 40% 1 17.01.2028 -
Lucas Nicol Mjondalen Aktiv 67 / 78 40% 1 17.01.2028 -
Matias Siltanen Malmo FF Aktiv 119 / 125 40% 2 10.01.2028 -
Pedro Soma San Diego Football Club Aktiv 93 / 112 40% 1 10.01.2028 -
Victor Hernandez Santa Fe Aktiv 130 / 120 40% 2 04.01.2028 -
Josh King Newcastle United Aktiv 150 / 143 40% 3 04.01.2028 -
Mao Hosoya Santos Verhandlung 134 / 135 67% 1 01.01.2028 Befürworten
Dion Beljo AJ Auxerre Verhandlung 131 / 132 66% 1 01.01.2028 Befürworten
Etiosa Ighodaro Kaizer Chiefs Aktiv 132 / 125 40% 2 31.12.2027 -
Ignacio Russo Tigre Aktiv 136 / 121 40% 1 31.12.2027 -
Maren Kefas Plateau United Aktiv 104 / 97 40% 2 28.12.2027 -
Kerim Alajbegović Modena Aktiv 137 / 137 40% 3 27.12.2027 -
Nicolás Barros Schelotto Gimnasia La Plata Aktiv 122 / 121 40% 1 27.12.2027 -
Ryan Kavuma-McQueen Accrington Stanley Aktiv 114 / 134 40% 1 26.12.2027 -
Pedro Baltika Aktiv 143 / 138 40% 5 25.12.2027 -
Luca Meirelles Kudrivka Aktiv 119 / 124 40% 1 25.12.2027 -
Matías Arias Vélez Aktiv 111 / 120 40% 2 23.12.2027 -
Siyabonga Mabena Bidvest Wits Aktiv 138 / 121 40% 1 23.12.2027 -
Dylan Cabral Arsenal Aktiv 108 / 108 40% 1 22.12.2027 -
Luighi Palmeiras Aktiv 111 / 111 40% 1 22.12.2027 -
Sindre Walle Egeli Udinese Aktiv 133 / 139 40% 1 20.12.2027 -
Alex Verón Vélez Aktiv 110 / 119 40% 2 18.12.2027 -
Idris Ajiya Nasarawa United Aktiv 78 / 91 40% 1 18.12.2027 -
Alex Amaefula Kun Khalifat Aktiv 86 / 84 40% 1 17.12.2027 -
Jayden Danns Bradford City Aktiv 137 / 144 40% 1 15.12.2027 -
Nupe Godstime Bayelsa United Aktiv 83 / 95 40% 2 14.12.2027 -
Ibrahim Fullah Charlton Athletic Aktiv 125 / 129 40% 1 14.12.2027 -
Abdulrahman Hamisu Niger Tornadoes Aktiv 77 / 80 40% 1 12.12.2027 -
Luca Williams-Barnett Walsall Aktiv 131 / 133 40% 1 10.12.2027 -
Bautista Carboni Defensores Unidos Aktiv 98 / 107 40% 1 08.12.2027 -
Mateo Peralta Danubio Aktiv 103 / 123 40% 1 08.12.2027 -
Patrik Horvat Sesvete Aktiv 113 / 103 40% 1 07.12.2027 -
Emmanuel Ndubueze Shooting Stars Aktiv 88 / 92 40% 1 07.12.2027 -
Olivier Mambwa Young Boys Aktiv 100 / 116 40% 1 21.11.2027 -
Colin Guske Orlando City Aktiv 108 / 104 40% 1 21.11.2027 -
Matteo Pérez Vinlöf Dinamo Zagreb Aktiv 132 / 132 40% 2 20.11.2027 -
Rasmus Nehrman Gefle Aktiv 82 / 87 40% 1 20.11.2027 -
Hosea Michael Remo Stars Aktiv 91 / 105 40% 1 19.11.2027 -
Ivan Borges Defensores Aktiv 81 / 93 40% 1 19.11.2027 -
Onyeuche Ujunwa Ikorodu City Aktiv 80 / 93 40% 1 18.11.2027 -
Ayden Heaven Portsmouth Aktiv 156 / 156 40% 1 17.11.2027 -
Francisco Machis Llaneros Aktiv 79 / 88 40% 1 23.08.2027 -
Agustín De la Cuesta Racing Aktiv 104 / 110 40% 1 23.08.2027 -
Marko Livaja Hajduk Split Aktiv 138 / 138 55% 1 14.06.2027 -
Pedro de la Vega Columbus Crew Verhandlung 133 / 134 66% 1 01.06.2027 Befürworten
Oli McBurnie Hull City Aktiv 133 / 128 40% 1 31.05.2027 -
Harry Clarke Preston Aktiv 133 / 131 40% 6 27.05.2027 -
Nobel Mendy Hull City Aktiv 123 / 142 40% 2 27.05.2027 -
Max Conway Bolton Wanderers Aktiv 128 / 115 40% 2 26.05.2027 -
Toby Collyer West Bromwich Albion Aktiv 128 / 138 40% 2 25.05.2027 -
Welington Southampton Aktiv 136 / 133 40% 3 24.05.2027 -
Jack Currie Oxford United Aktiv 127 / 115 40% 1 23.05.2027 -
Luca Connell Barnsley Aktiv 107 / 119 40% 1 22.05.2027 -
Joel Bagan Cardiff City Aktiv 109 / 116 40% 5 21.05.2027 -
Luke McNally Bristol City Aktiv 124 / 133 40% 6 21.05.2027 -
Lewis Bate Stockport County Aktiv 117 / 124 40% 4 20.05.2027 -
Riley Owen Stevenage Aktiv 101 / 110 40% 1 20.05.2027 -
Rhys Chadwick AFC Wimbledon Aktiv 102 / 106 40% 1 20.05.2027 -
Rhys Walters Port Vale Aktiv 90 / 107 40% 1 19.05.2027 -
Caleb Yirenkyi Coventry City Aktiv 128 / 147 40% 3 17.05.2027 -
Pietro Reggiori Pro Patria Aktiv 93 / 90 40% 3 16.05.2027 -
Brian De Keersmaecker Oxford United Aktiv 127 / 128 40% 1 15.05.2027 -
Derry Murkin Derby County Aktiv 121 / 128 40% 2 13.05.2027 -
Xavier Simons Bolton Wanderers Aktiv 113 / 122 40% 2 11.05.2027 -
Alfie Devine Preston Aktiv 110 / 117 40% 1 11.05.2027 -
Kristoffer Lund Birmingham Aktiv 124 / 120 40% 2 10.05.2027 -
Bence Dárdai VfL Wolfsburg Aktiv 122 / 141 40% 1 10.05.2027 -
Simone Kosijer Triestina Aktiv 97 / 105 40% 1 10.05.2027 -
Sascha Britschgi AC Milan Aktiv 121 / 120 40% 1 08.05.2027 -
Harvey White Stevenage Aktiv 106 / 110 40% 2 06.05.2027 -
Aaron Morley Wycombe Wanderers Aktiv 109 / 116 40% 2 04.05.2027 -
Max Arfsten Middlesbrough Aktiv 136 / 126 40% 1 04.05.2027 -
Ethan Pye Stockport County Aktiv 128 / 115 40% 5 03.05.2027 -
Ronnie Edwards Queens Park Rangers Aktiv 141 / 129 40% 2 03.05.2027 -
Dennis Cirkin Queens Park Rangers Aktiv 122 / 121 40% 2 02.05.2027 -
Jonathan Varane Queens Park Rangers Aktiv 119 / 133 40% 2 02.05.2027 -
Andrea Carboni Monza Aktiv 125 / 125 40% 2 30.04.2027 -
Bali Mumba Huddersfield Town Aktiv 120 / 121 40% 1 30.04.2027 -
Alfie Gilchrist West Bromwich Albion Aktiv 133 / 133 40% 1 27.04.2027 -
Max Johnston Derby County Aktiv 123 / 130 40% 4 25.04.2027 -
Moussa Baradji Blackburn Rovers Aktiv 133 / 119 40% 1 25.04.2027 -
Tariq Lamptey Queens Park Rangers Aktiv 128 / 138 40% 2 24.04.2027 -
Gonçalo Oliveira Benfica Aktiv 109 / 117 40% 2 24.04.2027 -
Alfie Doughty Millwall Aktiv 139 / 120 40% 3 20.04.2027 -
Ethan Galbraith Swansea City Aktiv 140 / 126 40% 1 20.04.2027 -
Leandro Martins Benfica Aktiv 102 / 98 40% 1 20.04.2027 -
Ivan Giraldo Valencia Aktiv 114 / 127 40% 1 20.04.2027 -
Tommaso Cecotti Carpi Aktiv 96 / 91 40% 1 19.04.2027 -
Edoardo Bove Watford Aktiv 122 / 139 40% 2 16.04.2027 -
Charlie Gray Fleetwood Town Aktiv 87 / 90 40% 1 16.04.2027 -
Darlin Yongwa Norwich City Aktiv 134 / 117 40% 2 14.04.2027 -
Nadir Zortea Bologna Aktiv 136 / 137 40% 2 09.04.2027 -
Bongani Jali Free State Stars Aktiv 103 / 113 40% 1 09.04.2027 -
Oliver Skipp Leicester City Aktiv 133 / 122 40% 1 07.04.2027 -
Michael Baidoo Plymouth Argyle Aktiv 125 / 127 40% 1 05.04.2027 -
Aidan Morris Middlesbrough Aktiv 133 / 137 40% 1 02.04.2027 -
Adis Jašić Zamalek Aktiv 145 / 118 40% 1 01.04.2027 -
Shea Charles Southampton Aktiv 129 / 144 40% 1 28.03.2027 -
Max Bird Birmingham Aktiv 141 / 135 40% 2 24.03.2027 -
Adrián Bernabé Parma Aktiv 143 / 132 40% 1 23.03.2027 -
Harrison Burrows Sheffield United Aktiv 119 / 125 40% 1 21.03.2027 -
Habib Diarra Sunderland Aktiv 150 / 140 40% 1 15.03.2027 -
Aldair Faustino Levski Aktiv 124 / 114 40% 1 12.03.2027 -
Bosun Lawal Stoke City Aktiv 137 / 134 40% 1 10.03.2027 -
Lee Buchanan Sheffield Wednesday Aktiv 120 / 119 40% 1 09.03.2027 -
Jacques Ekomié Wrexham Aktiv 134 / 133 40% 1 08.03.2027 -
Will Fish Cardiff City Aktiv 114 / 126 40% 1 04.03.2027 -
Adam Randell Bristol City Aktiv 119 / 128 40% 1 02.03.2027 -
Arnór Gauti Jónsson Slaven Belupo Aktiv 98 / 100 55% 1 25.01.2027 -
Joe Gelhardt Hull City Aktiv 143 / 131 40% 1 31.12.2026 -
Matej Trusa DAC Dunajska Streda Aktiv 128 / 113 40% 3 30.12.2026 -
Tyreece Campbell Charlton Athletic Aktiv 127 / 116 40% 1 29.12.2026 -
Zach Hemming Chesterfield Aktiv 107 / 112 40% 3 28.12.2026 -
Stav Toriel Hapoel Tel Aviv Aktiv 130 / 118 40% 1 28.12.2026 -
Marko Galić Cibalia Aktiv 104 / 97 40% 1 28.12.2026 -
Itumeleng Grobler Free State Stars Aktiv 114 / 112 40% 2 25.12.2026 -
Arthur Beroe Aktiv 110 / 110 40% 2 25.12.2026 -
Tyrese Campbell Sheffield United Aktiv 136 / 118 40% 2 25.12.2026 -
Sam Bell Bristol City Aktiv 123 / 118 40% 1 23.12.2026 -
Ilyas Ansah Hull City Aktiv 127 / 133 40% 1 22.12.2026 -
Armstrong Oko-Flex Levski Aktiv 117 / 124 40% 3 21.12.2026 -
George Wickens Lincoln City Aktiv 117 / 119 40% 1 20.12.2026 -
Radek Vítek Middlesbrough Aktiv 124 / 142 40% 1 20.12.2026 -
Jacques Siwe Rubin Aktiv 127 / 118 40% 1 20.12.2026 -
Erick Dolly Black Aces Aktiv 95 / 102 40% 3 16.12.2026 -
Antonio Đaković HNK Vukovar 1991 Aktiv 121 / 110 40% 1 14.12.2026 -
Sota Kitano Red Bull Salzburg Aktiv 113 / 116 40% 3 11.12.2026 -
Michele Šego Hajduk Split Aktiv 113 / 120 40% 2 10.12.2026 -
Gianluca Saro Foggia Aktiv 115 / 112 40% 1 08.12.2026 -
Maduka Okoye Udinese Aktiv 126 / 144 40% 1 08.12.2026 -
João Félix Dinamo Moscow Aktiv 143 / 159 40% 1 08.12.2026 -
Alberto Soro Dinamo Bucharest Aktiv 109 / 119 40% 1 08.12.2026 -
Manuel Roffo Hajduk Split Aktiv 128 / 119 40% 1 06.12.2026 -
Anton Zhylkin Karpaty Aktiv 97 / 97 40% 1 05.12.2026 -
Ivan Pakholiuk Kolos Aktiv 111 / 112 40% 2 03.12.2026 -
Luka Gavran Toronto FC Aktiv 125 / 106 40% 1 03.12.2026 -
Peter Valjent FK Senica Aktiv 108 / 127 40% 2 01.12.2026 -
Talles Magno New York City Aktiv 132 / 133 40% 3 30.11.2026 -
Bruno Zdunić Dugopolje Aktiv 103 / 97 40% 1 29.11.2026 Mehr Infos nötig
Tio Cipot NK Maribor Aktiv 109 / 120 40% 1 29.11.2026 -
Francisco Meixedo Feirense Aktiv 120 / 112 40% 2 27.11.2026 -
János Uram Vasas Aktiv 100 / 99 40% 1 21.11.2026 -
Egoitz Arana Real Sociedad Aktiv 98 / 102 40% 1 21.11.2026 -
Karlo Sentić Slaven Belupo Aktiv 103 / 108 40% 1 20.11.2026 -
Oliver Petersen Odd Aktiv 118 / 120 40% 1 20.11.2026 -
Richard Ludha MFK Skalica Aktiv 113 / 103 40% 1 17.11.2026 -
John Pulskamp Sporting Kansas City Aktiv 129 / 116 40% 1 17.11.2026 -
Matevž Vidovšek Olimpija Ljubljana Aktiv 110 / 118 40% 1 12.11.2026 -
Niklas Hedl Rapid Wien Aktiv 113 / 118 40% 1 12.11.2026 -
Vinko Rozić Istra 1961 Aktiv 122 / 116 40% 2 04.11.2026 Mehr Infos nötig
Erik Botheim Viking Aktiv 137 / 125 40% 1 04.11.2026 -
Germán Berterame Inter Miami CF Aktiv 114 / 139 40% 3 01.11.2026 -
Ammar Ramadan DAC Dunajska Streda Aktiv 131 / 118 40% 2 30.10.2026 -
Ante Matej Jurić Dinamo Zagreb Aktiv 102 / 118 40% 1 26.10.2026 -
Bénie Traoré New York City Aktiv 125 / 137 40% 2 24.10.2026 -
Bamba Dieng Crvena Zvezda Aktiv 130 / 136 40% 1 16.10.2026 -
Kein Sato FC Tokyo Aktiv 137 / 144 40% 1 09.10.2026 -
Jesus Ferreira Seattle Sounders Aktiv 140 / 141 40% 2 04.10.2026 -
Ramiro Ruiz Rodríguez Atlético Tucumán Aktiv 132 / 128 40% 1 27.09.2026 -
Maclyn Biokpo Jenewari Rivers United Aktiv 102 / 96 40% 1 26.09.2026 -
Tadeo Allende Inter Miami CF Aktiv 104 / 136 40% 1 25.09.2026 -
Martín Ojeda Orlando City Aktiv 131 / 123 40% 2 24.09.2026 -
Victor Olatunji Real Salt Lake Aktiv 129 / 109 40% 1 24.09.2026 -
Kelvin Yeboah Minnesota United FC Aktiv 113 / 118 40% 3 21.09.2026 -
Wessam Abou Ali Columbus Crew Aktiv 146 / 125 40% 2 21.09.2026 -
Biola Sabitu Remo Stars Aktiv 99 / 89 40% 1 21.09.2026 -
Alexander Aravena Portland Timbers Aktiv 113 / 110 40% 1 19.09.2026 -
Patrik Mijić HNK Gorica Aktiv 101 / 114 40% 1 17.09.2026 -
Karlo Špeljak HNK Vukovar 1991 Aktiv 110 / 111 40% 1 14.09.2026 -
Dejan Joveljić Seattle Sounders Aktiv 123 / 136 40% 1 14.09.2026 -
Kazuki Fujita Avispa Fukuoka Aktiv 125 / 130 40% 1 14.09.2026 -
Franko Kolić Istra 1961 Aktiv 111 / 110 40% 1 13.09.2026 -
Fiete Arp OB Aktiv 114 / 140 40% 1 11.09.2026 -
Jeong Sang-Bin St. Louis CITY SC Aktiv 97 / 112 40% 1 09.09.2026 -
Brandon Vázquez Austin FC Aktiv 135 / 108 40% 1 08.09.2026 -
Nathan Ordaz DC United Aktiv 111 / 126 40% 1 08.09.2026 -